createdAt,value
2023-01-13T00:00:11.083Z,98460.61
2023-01-13T00:01:15.073Z,98470.59
2023-01-13T00:02:11.148Z,98464.01
2023-01-13T00:03:11.071Z,98450.95
2023-01-13T00:04:11.074Z,98479.88
2023-01-13T00:05:11.067Z,98461.45
2023-01-13T00:06:16.067Z,98472.48
2023-01-13T00:07:11.076Z,98456.82
2023-01-13T00:08:11.073Z,98460.59
2023-01-13T00:09:11.066Z,98461.87
2023-01-13T00:10:11.133Z,98458.25
2023-01-13T00:11:11.074Z,98466.52
2023-01-13T00:12:11.065Z,98447.20
2023-01-13T00:13:11.070Z,98445.54
2023-01-13T00:14:11.070Z,98450.12
2023-01-13T00:15:11.069Z,98447.31
2023-01-13T00:16:12.205Z,98453.94
2023-01-13T00:17:11.069Z,98454.00
2023-01-13T00:18:11.067Z,98454.31
2023-01-13T00:19:11.072Z,98449.60
2023-01-13T00:20:11.068Z,98433.36
2023-01-13T00:21:13.069Z,98442.06
2023-01-13T00:22:11.074Z,98438.07
2023-01-13T00:23:11.072Z,98445.21
2023-01-13T00:24:11.069Z,98428.79
2023-01-13T00:25:11.069Z,98425.58
2023-01-13T00:26:14.069Z,98436.72
2023-01-13T00:27:11.074Z,98437.18
2023-01-13T00:28:11.079Z,98446.95
2023-01-13T00:29:11.071Z,98436.91
2023-01-13T00:30:11.074Z,98430.48
2023-01-13T00:31:16.322Z,98429.18
2023-01-13T00:32:11.072Z,98434.91
2023-01-13T00:33:11.070Z,98423.77
2023-01-13T00:34:11.078Z,98438.30
2023-01-13T00:35:11.084Z,98444.36
2023-01-13T00:36:13.094Z,98440.53
2023-01-13T00:37:11.074Z,98438.25
2023-01-13T00:38:11.077Z,98443.83
2023-01-13T00:39:11.069Z,98437.70
2023-01-13T00:40:11.070Z,98439.05
2023-01-13T00:41:13.079Z,98439.68
2023-01-13T00:42:15.070Z,98435.92
2023-01-13T00:43:15.076Z,98444.67
2023-01-13T00:44:11.084Z,98429.15
2023-01-13T00:45:11.072Z,98444.03
2023-01-13T00:46:11.137Z,98447.74
2023-01-13T00:47:11.069Z,98426.33
2023-01-13T00:48:13.072Z,98444.56
2023-01-13T00:49:11.069Z,98446.72
2023-01-13T00:50:11.092Z,98449.64
2023-01-13T00:51:12.075Z,98453.59
2023-01-13T00:52:12.067Z,98459.60
2023-01-13T00:53:11.067Z,98460.96
2023-01-13T00:54:11.072Z,98460.97
2023-01-13T00:55:11.067Z,98472.39
2023-01-13T00:56:13.073Z,98451.71
2023-01-13T00:57:11.072Z,98458.32
2023-01-13T00:58:11.071Z,98447.30
2023-01-13T00:59:12.068Z,98460.02
2023-01-13T01:00:11.079Z,98447.18
2023-01-13T01:01:18.202Z,98454.36
2023-01-13T01:02:11.272Z,98458.63
2023-01-13T01:03:15.065Z,98466.42
2023-01-13T01:04:11.069Z,98457.20
2023-01-13T01:05:11.066Z,98456.60
2023-01-13T01:06:18.061Z,98458.85
2023-01-13T01:07:11.068Z,98457.89
2023-01-13T01:08:11.056Z,98466.37
2023-01-13T01:09:12.068Z,98459.63
2023-01-13T01:10:11.069Z,98470.20
2023-01-13T01:11:11.063Z,98465.97
2023-01-13T01:12:11.058Z,98464.89
2023-01-13T01:13:11.065Z,98456.60
2023-01-13T01:14:11.057Z,98467.50
2023-01-13T01:15:11.074Z,98466.53
2023-01-13T01:16:12.135Z,98476.22
2023-01-13T01:17:11.059Z,98474.24
2023-01-13T01:18:11.064Z,98474.69
2023-01-13T01:19:11.082Z,98472.77
2023-01-13T01:20:11.061Z,98474.86
2023-01-13T01:21:11.057Z,98471.05
2023-01-13T01:22:11.068Z,98477.70
2023-01-13T01:23:11.059Z,98481.54
2023-01-13T01:24:11.071Z,98478.77
2023-01-13T01:25:11.063Z,98486.48
2023-01-13T01:26:16.058Z,98491.41
2023-01-13T01:27:11.057Z,98477.59
2023-01-13T01:28:11.057Z,98467.71
2023-01-13T01:29:12.070Z,98486.69
2023-01-13T01:30:11.066Z,98478.64
2023-01-13T01:31:19.078Z,98473.62
2023-01-13T01:32:11.066Z,98463.86
2023-01-13T01:33:11.061Z,98487.79
2023-01-13T01:34:11.066Z,98511.90
2023-01-13T01:35:11.066Z,98493.04
2023-01-13T01:36:11.061Z,98486.28
2023-01-13T01:37:11.057Z,98484.10
2023-01-13T01:38:11.061Z,98498.34
2023-01-13T01:39:11.061Z,98483.00
2023-01-13T01:40:11.060Z,98467.16
2023-01-13T01:41:13.064Z,98484.53
2023-01-13T01:42:16.062Z,98470.99
2023-01-13T01:43:19.067Z,98486.53
2023-01-13T01:44:19.070Z,98506.04
2023-01-13T01:45:18.069Z,98492.70
2023-01-13T01:46:11.063Z,98499.31
2023-01-13T01:47:11.075Z,98495.27
2023-01-13T01:48:11.061Z,98492.47
2023-01-13T01:49:19.064Z,98508.93
2023-01-13T01:50:11.062Z,98501.95
2023-01-13T01:51:13.055Z,98503.96
2023-01-13T01:52:14.064Z,98507.49
2023-01-13T01:53:18.078Z,98504.23
2023-01-13T01:54:14.059Z,98496.95
2023-01-13T01:55:17.066Z,98491.23
2023-01-13T01:56:11.065Z,98502.05
2023-01-13T01:57:13.066Z,98503.38
2023-01-13T01:58:19.059Z,98490.55
2023-01-13T01:59:11.062Z,98479.23
2023-01-13T02:00:11.075Z,98508.24
2023-01-13T02:01:11.239Z,98511.74
2023-01-13T02:02:11.166Z,98494.19
2023-01-13T02:03:11.080Z,98490.04
2023-01-13T02:04:16.068Z,98495.82
2023-01-13T02:05:11.066Z,98503.82
2023-01-13T02:06:11.072Z,98498.21
2023-01-13T02:07:11.065Z,98513.86
2023-01-13T02:08:12.064Z,98506.83
2023-01-13T02:09:11.071Z,98489.82
2023-01-13T02:10:12.063Z,98510.44
2023-01-13T02:11:15.066Z,98513.23
2023-01-13T02:12:15.069Z,98510.02
2023-01-13T02:13:12.063Z,98505.12
2023-01-13T02:14:11.062Z,98511.32
2023-01-13T02:15:19.078Z,98510.68
2023-01-13T02:16:16.104Z,98520.87
2023-01-13T02:17:19.060Z,98513.37
2023-01-13T02:18:19.060Z,98518.12
2023-01-13T02:19:19.066Z,98519.24
2023-01-13T02:20:19.085Z,98518.81
2023-01-13T02:21:19.066Z,98520.49
2023-01-13T02:22:19.061Z,98516.90
2023-01-13T02:23:19.059Z,98520.88
2023-01-13T02:24:23.063Z,98514.32
2023-01-13T02:25:21.075Z,98511.64
2023-01-13T02:26:19.063Z,98519.50
2023-01-13T02:27:19.064Z,98514.57
2023-01-13T02:28:21.063Z,98519.01
2023-01-13T02:29:23.063Z,98524.50
2023-01-13T02:30:23.069Z,98528.44
2023-01-13T02:31:16.099Z,98526.14
2023-01-13T02:32:18.074Z,98518.80
2023-01-13T02:33:19.068Z,98526.09
2023-01-13T02:34:19.063Z,98524.13
2023-01-13T02:35:19.073Z,98526.25
2023-01-13T02:36:23.064Z,98526.76
2023-01-13T02:37:21.064Z,98526.98
2023-01-13T02:38:12.066Z,98527.15
2023-01-13T02:39:18.072Z,98529.67
2023-01-13T02:40:20.072Z,98521.57
2023-01-13T02:41:24.070Z,98529.18
2023-01-13T02:42:20.067Z,98529.15
2023-01-13T02:43:22.062Z,98528.14
2023-01-13T02:44:12.072Z,98532.31
2023-01-13T02:45:16.068Z,98534.27
2023-01-13T02:46:15.068Z,98536.63
2023-01-13T02:47:13.064Z,98534.29
2023-01-13T02:48:11.063Z,98540.84
2023-01-13T02:49:14.073Z,98534.03
2023-01-13T02:50:14.072Z,98537.62
2023-01-13T02:51:14.067Z,98536.88
2023-01-13T02:52:17.075Z,98533.21
2023-01-13T02:53:20.065Z,98541.07
2023-01-13T02:54:14.067Z,98540.23
2023-01-13T02:55:18.066Z,98541.32
2023-01-13T02:56:11.065Z,98535.62
2023-01-13T02:57:11.068Z,98540.92
2023-01-13T02:58:12.074Z,98532.80
2023-01-13T02:59:11.068Z,98522.43
2023-01-13T03:00:12.069Z,98519.63
2023-01-13T03:01:11.170Z,98526.45
2023-01-13T03:02:12.287Z,98526.53
2023-01-13T03:03:11.072Z,98521.44
2023-01-13T03:04:19.067Z,98527.12
2023-01-13T03:05:14.070Z,98537.71
2023-01-13T03:06:21.076Z,98540.55
2023-01-13T03:07:19.071Z,98535.92
2023-01-13T03:08:21.068Z,98535.06
2023-01-13T03:09:19.081Z,98532.96
2023-01-13T03:10:21.078Z,98537.90
2023-01-13T03:11:14.069Z,98529.66
2023-01-13T03:12:22.071Z,98532.25
2023-01-13T03:13:19.071Z,98537.31
2023-01-13T03:14:21.073Z,98542.66
2023-01-13T03:15:21.073Z,98545.85
2023-01-13T03:16:21.153Z,98533.89
2023-01-13T03:17:21.095Z,98531.46
2023-01-13T03:18:19.084Z,98544.99
2023-01-13T03:19:19.073Z,98538.08
2023-01-13T03:20:19.074Z,98544.95
2023-01-13T03:21:19.067Z,98542.54
2023-01-13T03:22:19.086Z,98558.97
2023-01-13T03:23:21.071Z,98537.29
2023-01-13T03:24:19.072Z,98553.84
2023-01-13T03:25:19.072Z,98559.79
2023-01-13T03:26:16.070Z,98548.43
2023-01-13T03:27:19.075Z,98558.38
2023-01-13T03:28:20.072Z,98564.93
2023-01-13T03:29:21.072Z,98556.57
2023-01-13T03:30:21.067Z,98568.32
2023-01-13T03:31:16.075Z,98550.99
2023-01-13T03:32:17.080Z,98568.94
2023-01-13T03:33:23.073Z,98530.59
2023-01-13T03:34:16.071Z,98571.08
2023-01-13T03:35:21.070Z,98561.50
2023-01-13T03:36:12.066Z,98568.44
2023-01-13T03:37:11.075Z,98562.76
2023-01-13T03:38:18.070Z,98579.84
2023-01-13T03:39:15.068Z,98561.92
2023-01-13T03:40:18.073Z,98571.55
2023-01-13T03:41:21.070Z,98580.83
2023-01-13T03:42:13.071Z,98572.96
2023-01-13T03:43:19.082Z,98593.66
2023-01-13T03:44:24.073Z,98580.17
2023-01-13T03:45:15.077Z,98583.62
2023-01-13T03:46:18.154Z,98583.75
2023-01-13T03:47:21.071Z,98586.12
2023-01-13T03:48:16.085Z,98580.00
2023-01-13T03:49:13.074Z,98585.73
2023-01-13T03:50:17.097Z,98587.33
2023-01-13T03:51:13.071Z,98592.73
2023-01-13T03:52:13.071Z,98589.68
2023-01-13T03:53:17.074Z,98589.82
2023-01-13T03:54:13.072Z,98591.31
2023-01-13T03:55:17.096Z,98596.30
2023-01-13T03:56:20.101Z,98604.15
2023-01-13T03:57:12.086Z,98596.86
2023-01-13T03:58:18.129Z,98620.28
2023-01-13T03:59:15.074Z,98591.93
2023-01-13T04:00:12.070Z,98612.07
2023-01-13T04:01:18.213Z,98597.75
2023-01-13T04:02:18.163Z,98607.75
2023-01-13T04:03:17.064Z,98609.16
2023-01-13T04:04:18.069Z,98605.97
2023-01-13T04:05:11.060Z,98616.27
2023-01-13T04:06:17.091Z,98611.81
2023-01-13T04:07:19.062Z,98632.05
2023-01-13T04:08:20.071Z,98607.98
2023-01-13T04:09:21.072Z,98619.56
2023-01-13T04:10:11.074Z,98620.62
2023-01-13T04:11:17.061Z,98615.11
2023-01-13T04:12:14.080Z,98629.54
2023-01-13T04:13:14.062Z,98623.25
2023-01-13T04:14:11.063Z,98629.25
2023-01-13T04:15:11.065Z,98633.53
2023-01-13T04:16:11.098Z,98636.75
2023-01-13T04:17:11.066Z,98624.52
2023-01-13T04:18:19.082Z,98635.90
2023-01-13T04:19:11.075Z,98639.18
2023-01-13T04:20:11.068Z,98644.11
2023-01-13T04:21:11.067Z,98649.11
2023-01-13T04:22:11.079Z,98637.34
2023-01-13T04:23:11.066Z,98645.63
2023-01-13T04:24:11.090Z,98664.84
2023-01-13T04:25:11.074Z,98653.70
2023-01-13T04:26:11.061Z,98654.09
2023-01-13T04:27:11.064Z,98660.47
2023-01-13T04:28:11.080Z,98659.27
2023-01-13T04:29:11.061Z,98677.48
2023-01-13T04:30:11.075Z,98665.39
2023-01-13T04:31:11.231Z,98664.69
2023-01-13T04:32:11.062Z,98671.67
2023-01-13T04:33:11.068Z,98664.72
2023-01-13T04:34:11.074Z,98672.62
2023-01-13T04:35:11.062Z,98676.21
2023-01-13T04:36:11.059Z,98669.82
2023-01-13T04:37:11.072Z,98676.05
2023-01-13T04:38:15.063Z,98663.66
2023-01-13T04:39:11.064Z,98675.56
2023-01-13T04:40:11.079Z,98677.65
2023-01-13T04:41:11.065Z,98677.32
2023-01-13T04:42:11.062Z,98679.25
2023-01-13T04:43:11.073Z,98676.09
2023-01-13T04:44:11.079Z,98687.62
2023-01-13T04:45:11.064Z,98685.55
2023-01-13T04:46:11.105Z,98669.71
2023-01-13T04:47:11.070Z,98674.28
2023-01-13T04:48:11.066Z,98681.83
2023-01-13T04:49:11.066Z,98683.20
2023-01-13T04:50:11.078Z,98680.29
2023-01-13T04:51:11.060Z,98682.49
2023-01-13T04:52:11.076Z,98666.30
2023-01-13T04:53:11.065Z,98685.86
2023-01-13T04:54:11.069Z,98665.62
2023-01-13T04:55:11.076Z,98659.15
2023-01-13T04:56:11.075Z,98679.93
2023-01-13T04:57:11.067Z,98675.02
2023-01-13T04:58:11.064Z,98675.29
2023-01-13T04:59:11.069Z,98670.88
2023-01-13T05:00:11.064Z,98677.08
2023-01-13T05:01:11.235Z,98697.24
2023-01-13T05:02:12.127Z,98673.46
2023-01-13T05:03:11.065Z,98685.52
2023-01-13T05:04:11.066Z,98675.99
2023-01-13T05:05:11.070Z,98682.07
2023-01-13T05:06:11.066Z,98685.50
2023-01-13T05:07:11.069Z,98695.03
2023-01-13T05:08:11.078Z,98691.10
2023-01-13T05:09:11.066Z,98686.51
2023-01-13T05:10:11.067Z,98691.83
2023-01-13T05:11:15.067Z,98685.83
2023-01-13T05:12:15.067Z,98678.30
2023-01-13T05:13:15.067Z,98685.82
2023-01-13T05:14:15.082Z,98685.04
2023-01-13T05:15:15.067Z,98689.63
2023-01-13T05:16:15.117Z,98700.71
2023-01-13T05:17:12.075Z,98698.29
2023-01-13T05:18:11.083Z,98700.30
2023-01-13T05:19:11.065Z,98697.04
2023-01-13T05:20:11.072Z,98702.88
2023-01-13T05:21:15.074Z,98700.89
2023-01-13T05:22:15.069Z,98697.14
2023-01-13T05:23:15.066Z,98698.78
2023-01-13T05:24:15.067Z,98698.67
2023-01-13T05:25:15.082Z,98703.58
2023-01-13T05:26:11.069Z,98709.83
2023-01-13T05:27:11.079Z,98694.67
2023-01-13T05:28:11.078Z,98717.92
2023-01-13T05:29:11.075Z,98709.37
2023-01-13T05:30:11.065Z,98699.45
2023-01-13T05:31:11.126Z,98715.53
2023-01-13T05:32:12.078Z,98716.83
2023-01-13T05:33:12.072Z,98714.61
2023-01-13T05:34:11.071Z,98713.61
2023-01-13T05:35:11.075Z,98720.14
2023-01-13T05:36:11.066Z,98691.96
2023-01-13T05:37:11.078Z,98712.33
2023-01-13T05:38:11.075Z,98686.83
2023-01-13T05:39:11.067Z,98715.53
2023-01-13T05:40:15.066Z,98720.29
2023-01-13T05:41:15.087Z,98721.35
2023-01-13T05:42:15.071Z,98719.06
2023-01-13T05:43:17.069Z,98715.77
2023-01-13T05:44:11.066Z,98712.67
2023-01-13T05:45:11.075Z,98713.65
2023-01-13T05:46:11.092Z,98734.27
2023-01-13T05:47:11.066Z,98721.82
2023-01-13T05:48:11.082Z,98735.32
2023-01-13T05:49:11.071Z,98736.19
2023-01-13T05:50:11.065Z,98734.31
2023-01-13T05:51:12.087Z,98731.45
2023-01-13T05:52:11.073Z,98751.25
2023-01-13T05:53:11.066Z,98737.48
2023-01-13T05:54:11.073Z,98746.47
2023-01-13T05:55:11.070Z,98741.73
2023-01-13T05:56:11.076Z,98742.06
2023-01-13T05:57:11.073Z,98744.14
2023-01-13T05:58:11.074Z,98740.64
2023-01-13T05:59:11.065Z,98737.47
2023-01-13T06:00:11.073Z,98751.12
2023-01-13T06:01:11.110Z,98743.65
2023-01-13T06:02:11.067Z,98746.89
2023-01-13T06:03:11.159Z,98748.84
2023-01-13T06:04:11.131Z,98748.32
2023-01-13T06:05:11.072Z,98753.81
2023-01-13T06:06:12.079Z,98754.03
2023-01-13T06:07:11.071Z,98756.25
2023-01-13T06:08:11.086Z,98760.82
2023-01-13T06:09:11.080Z,98755.36
2023-01-13T06:10:11.072Z,98749.08
2023-01-13T06:11:11.075Z,98757.56
2023-01-13T06:12:12.076Z,98757.61
2023-01-13T06:13:11.077Z,98748.76
2023-01-13T06:14:11.071Z,98754.70
2023-01-13T06:15:11.069Z,98753.86
2023-01-13T06:16:11.133Z,98759.51
2023-01-13T06:17:13.070Z,98765.76
2023-01-13T06:18:11.073Z,98766.30
2023-01-13T06:19:13.105Z,98769.05
2023-01-13T06:20:12.072Z,98758.12
2023-01-13T06:21:11.074Z,98771.08
2023-01-13T06:22:21.073Z,98783.50
2023-01-13T06:23:11.078Z,98778.19
2023-01-13T06:24:11.079Z,98782.64
2023-01-13T06:25:17.080Z,98790.62
2023-01-13T06:26:15.073Z,98787.15
2023-01-13T06:27:11.072Z,98787.26
2023-01-13T06:28:11.078Z,98784.31
2023-01-13T06:29:11.076Z,98786.05
2023-01-13T06:30:11.069Z,98791.66
2023-01-13T06:31:11.173Z,98789.48
2023-01-13T06:32:16.075Z,98788.25
2023-01-13T06:33:14.077Z,98784.23
2023-01-13T06:34:11.073Z,98783.46
2023-01-13T06:35:13.081Z,98790.57
2023-01-13T06:36:20.079Z,98796.67
2023-01-13T06:37:12.070Z,98787.48
2023-01-13T06:38:12.077Z,98791.40
2023-01-13T06:39:11.074Z,98801.11
2023-01-13T06:40:11.078Z,98800.71
2023-01-13T06:41:11.076Z,98803.85
2023-01-13T06:42:15.089Z,98803.59
2023-01-13T06:43:16.449Z,98811.19
2023-01-13T06:44:11.074Z,98804.44
2023-01-13T06:45:11.077Z,98812.86
2023-01-13T06:46:11.077Z,98816.45
2023-01-13T06:47:11.073Z,98807.77
2023-01-13T06:48:11.077Z,98815.09
2023-01-13T06:49:11.081Z,98823.69
2023-01-13T06:50:11.075Z,98817.72
2023-01-13T06:51:11.079Z,98808.64
2023-01-13T06:52:11.075Z,98829.77
2023-01-13T06:53:11.074Z,98829.05
2023-01-13T06:54:11.088Z,98822.86
2023-01-13T06:55:11.074Z,98824.32
2023-01-13T06:56:11.077Z,98833.75
2023-01-13T06:57:11.085Z,98833.00
2023-01-13T06:58:11.078Z,98840.05
2023-01-13T06:59:11.097Z,98840.70
2023-01-13T07:00:11.064Z,98839.86
2023-01-13T07:01:11.183Z,98846.37
2023-01-13T07:02:11.205Z,98844.94
2023-01-13T07:03:11.071Z,98849.99
2023-01-13T07:04:11.058Z,98853.69
2023-01-13T07:05:11.062Z,98863.15
2023-01-13T07:06:11.071Z,98857.74
2023-01-13T07:07:11.063Z,98857.67
2023-01-13T07:08:11.070Z,98863.95
2023-01-13T07:09:11.070Z,98867.66
2023-01-13T07:10:12.057Z,98865.63
2023-01-13T07:11:11.066Z,98863.84
2023-01-13T07:12:11.071Z,98869.38
2023-01-13T07:13:15.074Z,98869.22
2023-01-13T07:14:15.071Z,98884.03
2023-01-13T07:15:15.064Z,98888.61
2023-01-13T07:16:11.114Z,98888.05
2023-01-13T07:17:11.059Z,98887.19
2023-01-13T07:18:11.079Z,98891.95
2023-01-13T07:19:11.063Z,98890.34
2023-01-13T07:20:11.060Z,98894.13
2023-01-13T07:21:11.068Z,98889.35
2023-01-13T07:22:13.064Z,98893.65
2023-01-13T07:23:11.065Z,98896.52
2023-01-13T07:24:11.068Z,98903.20
2023-01-13T07:25:11.066Z,98913.85
2023-01-13T07:26:11.061Z,98911.18
2023-01-13T07:27:11.076Z,98909.92
2023-01-13T07:28:11.072Z,98918.13
2023-01-13T07:29:11.074Z,98922.80
2023-01-13T07:30:11.073Z,98920.83
2023-01-13T07:31:15.137Z,98921.15
2023-01-13T07:32:11.067Z,98924.84
2023-01-13T07:33:11.062Z,98924.39
2023-01-13T07:34:11.068Z,98929.45
2023-01-13T07:35:11.063Z,98934.30
2023-01-13T07:36:11.097Z,98933.13
2023-01-13T07:37:11.068Z,98937.36
2023-01-13T07:38:11.066Z,98936.17
2023-01-13T07:39:11.064Z,98933.66
2023-01-13T07:40:11.066Z,98943.28
2023-01-13T07:41:16.065Z,98935.77
2023-01-13T07:42:15.064Z,98948.28
2023-01-13T07:43:15.065Z,98941.65
2023-01-13T07:44:11.117Z,98950.21
2023-01-13T07:45:12.401Z,98953.00
2023-01-13T07:46:11.090Z,98957.50
2023-01-13T07:47:12.080Z,98949.30
2023-01-13T07:48:11.083Z,98952.66
2023-01-13T07:49:11.062Z,98958.86
2023-01-13T07:50:11.085Z,98949.35
2023-01-13T07:51:11.069Z,98955.22
2023-01-13T07:52:11.065Z,98958.94
2023-01-13T07:53:11.072Z,98959.10
2023-01-13T07:54:11.073Z,98969.49
2023-01-13T07:55:11.064Z,98970.32
2023-01-13T07:56:11.080Z,98974.81
2023-01-13T07:57:11.068Z,98972.98
2023-01-13T07:58:11.067Z,98974.75
2023-01-13T07:59:11.070Z,98981.94
2023-01-13T08:00:12.858Z,98984.65
2023-01-13T08:01:11.263Z,98984.46
2023-01-13T08:02:13.372Z,98982.18
2023-01-13T08:03:11.104Z,98987.12
2023-01-13T08:04:11.066Z,98990.16
2023-01-13T08:05:11.084Z,98989.29
2023-01-13T08:06:11.068Z,98991.20
2023-01-13T08:07:11.069Z,98988.70
2023-01-13T08:08:11.067Z,98989.36
2023-01-13T08:09:11.073Z,98994.56
2023-01-13T08:10:11.069Z,99001.73
2023-01-13T08:11:11.067Z,98994.33
2023-01-13T08:12:15.092Z,99000.00
2023-01-13T08:13:17.062Z,98996.84
2023-01-13T08:14:11.070Z,99007.93
2023-01-13T08:15:11.070Z,99005.15
2023-01-13T08:16:13.115Z,99003.35
2023-01-13T08:17:11.064Z,99003.97
2023-01-13T08:18:11.074Z,99012.36
2023-01-13T08:19:11.074Z,99015.57
2023-01-13T08:20:11.065Z,99017.75
2023-01-13T08:21:14.072Z,99006.37
2023-01-13T08:22:11.067Z,99013.89
2023-01-13T08:23:11.076Z,99016.19
2023-01-13T08:24:12.069Z,99022.21
2023-01-13T08:25:11.068Z,99026.51
2023-01-13T08:26:12.071Z,99027.26
2023-01-13T08:27:11.069Z,99023.88
2023-01-13T08:28:11.067Z,99038.70
2023-01-13T08:29:13.692Z,99018.06
2023-01-13T08:30:11.072Z,99021.98
2023-01-13T08:31:14.166Z,99026.81
2023-01-13T08:32:11.067Z,99025.62
2023-01-13T08:33:11.071Z,99011.48
2023-01-13T08:34:11.070Z,99024.45
2023-01-13T08:35:11.067Z,99019.76
2023-01-13T08:36:11.071Z,99030.74
2023-01-13T08:37:11.070Z,99040.73
2023-01-13T08:38:11.069Z,99035.57
2023-01-13T08:39:11.066Z,99037.32
2023-01-13T08:40:11.070Z,99037.90
2023-01-13T08:41:14.070Z,99041.44
2023-01-13T08:42:11.080Z,99045.35
2023-01-13T08:43:11.076Z,99047.36
2023-01-13T08:44:11.069Z,99026.82
2023-01-13T08:45:11.083Z,99052.04
2023-01-13T08:46:11.169Z,99052.80
2023-01-13T08:47:11.082Z,99051.66
2023-01-13T08:48:11.075Z,99053.26
2023-01-13T08:49:11.081Z,99064.29
2023-01-13T08:50:11.072Z,99064.49
2023-01-13T08:51:11.066Z,99067.21
2023-01-13T08:52:11.081Z,99057.58
2023-01-13T08:53:11.072Z,99064.56
2023-01-13T08:54:11.066Z,99070.36
2023-01-13T08:55:11.074Z,99070.36
2023-01-13T08:56:11.068Z,99073.23
2023-01-13T08:57:11.068Z,99071.62
2023-01-13T08:58:15.617Z,99072.70
2023-01-13T08:59:20.564Z,99082.72
2023-01-13T09:00:11.078Z,99079.24
2023-01-13T09:01:13.164Z,99070.59
2023-01-13T09:02:14.214Z,99090.78
2023-01-13T09:03:11.070Z,99082.52
2023-01-13T09:04:18.107Z,99090.05
2023-01-13T09:05:11.087Z,99091.74
2023-01-13T09:06:11.070Z,99091.86
2023-01-13T09:07:11.075Z,99090.18
2023-01-13T09:08:11.074Z,99100.95
2023-01-13T09:09:11.085Z,99102.08
2023-01-13T09:10:11.077Z,99102.21
2023-01-13T09:11:19.086Z,99111.98
2023-01-13T09:12:15.081Z,99106.48
2023-01-13T09:13:15.073Z,99108.13
2023-01-13T09:14:11.078Z,99109.70
2023-01-13T09:15:11.078Z,99110.25
2023-01-13T09:16:11.150Z,99108.51
2023-01-13T09:17:11.072Z,99105.95
2023-01-13T09:18:11.081Z,99112.75
2023-01-13T09:19:11.075Z,99111.23
2023-01-13T09:20:11.078Z,99107.80
2023-01-13T09:21:12.073Z,99115.96
2023-01-13T09:22:14.074Z,99123.08
2023-01-13T09:23:11.468Z,99122.43
2023-01-13T09:24:11.072Z,99126.18
2023-01-13T09:25:11.076Z,99118.72
2023-01-13T09:26:11.081Z,99125.59
2023-01-13T09:27:11.076Z,99128.78
2023-01-13T09:28:11.087Z,99126.06
2023-01-13T09:29:11.075Z,99129.98
2023-01-13T09:30:11.085Z,99136.13
2023-01-13T09:31:11.123Z,99133.90
2023-01-13T09:32:13.073Z,99123.18
2023-01-13T09:33:15.077Z,99136.77
2023-01-13T09:34:20.084Z,99149.38
2023-01-13T09:35:11.088Z,99146.50
2023-01-13T09:36:11.073Z,99142.14
2023-01-13T09:37:11.077Z,99151.87
2023-01-13T09:38:11.082Z,99151.76
2023-01-13T09:39:11.074Z,99152.69
2023-01-13T09:40:18.078Z,99158.84
2023-01-13T09:41:23.088Z,99159.43
2023-01-13T09:42:23.076Z,99156.93
2023-01-13T09:43:20.077Z,99155.36
2023-01-13T09:44:16.075Z,99164.54
2023-01-13T09:45:16.075Z,99158.67
2023-01-13T09:46:21.158Z,99162.09
2023-01-13T09:47:19.077Z,99160.77
2023-01-13T09:48:18.090Z,99165.88
2023-01-13T09:49:18.077Z,99175.78
2023-01-13T09:50:19.084Z,99169.47
2023-01-13T09:51:16.087Z,99168.21
2023-01-13T09:52:18.076Z,99178.28
2023-01-13T09:53:14.089Z,99182.25
2023-01-13T09:54:21.084Z,99181.49
2023-01-13T09:55:18.079Z,99190.66
2023-01-13T09:56:12.074Z,99182.13
2023-01-13T09:57:13.073Z,99205.99
2023-01-13T09:58:17.080Z,99194.20
2023-01-13T09:59:13.087Z,99199.14
2023-01-13T10:00:20.111Z,99208.82
2023-01-13T10:01:23.121Z,99210.72
2023-01-13T10:02:19.104Z,99206.93
2023-01-13T10:03:19.258Z,99210.03
2023-01-13T10:04:14.061Z,99209.91
2023-01-13T10:05:17.061Z,99208.98
2023-01-13T10:06:19.086Z,99214.90
2023-01-13T10:07:14.109Z,99210.07
2023-01-13T10:08:19.062Z,99210.27
2023-01-13T10:09:17.084Z,99217.72
2023-01-13T10:10:17.073Z,99221.58
2023-01-13T10:11:20.090Z,99222.62
2023-01-13T10:12:20.074Z,99211.01
2023-01-13T10:13:21.064Z,99216.07
2023-01-13T10:14:19.064Z,99213.07
2023-01-13T10:15:15.085Z,99223.85
2023-01-13T10:16:21.156Z,99225.48
2023-01-13T10:17:19.062Z,99236.63
2023-01-13T10:18:22.074Z,99246.08
2023-01-13T10:19:21.062Z,99235.59
2023-01-13T10:20:19.095Z,99239.57
2023-01-13T10:21:19.069Z,99242.66
2023-01-13T10:22:21.062Z,99228.98
2023-01-13T10:23:19.068Z,99243.96
2023-01-13T10:24:19.080Z,99250.92
2023-01-13T10:25:19.067Z,99254.57
2023-01-13T10:26:21.225Z,99251.18
2023-01-13T10:27:19.073Z,99252.16
2023-01-13T10:28:14.062Z,99253.13
2023-01-13T10:29:19.073Z,99237.83
2023-01-13T10:30:18.073Z,99248.96
2023-01-13T10:31:13.097Z,99256.68
2023-01-13T10:32:11.064Z,99263.52
2023-01-13T10:33:15.075Z,99253.40
2023-01-13T10:34:11.073Z,99260.79
2023-01-13T10:35:11.066Z,99263.50
2023-01-13T10:36:17.068Z,99256.76
2023-01-13T10:37:19.073Z,99259.52
2023-01-13T10:38:18.086Z,99264.86
2023-01-13T10:39:15.068Z,99246.17
2023-01-13T10:40:17.067Z,99254.64
2023-01-13T10:41:19.082Z,99264.14
2023-01-13T10:42:14.091Z,99256.22
2023-01-13T10:43:11.067Z,99255.67
2023-01-13T10:44:18.067Z,99253.93
2023-01-13T10:45:21.075Z,99259.24
2023-01-13T10:46:14.106Z,99250.42
2023-01-13T10:47:19.070Z,99252.23
2023-01-13T10:48:14.067Z,99259.36
2023-01-13T10:49:19.069Z,99261.57
2023-01-13T10:50:21.064Z,99263.76
2023-01-13T10:51:19.088Z,99254.52
2023-01-13T10:52:21.154Z,99251.67
2023-01-13T10:53:19.078Z,99277.81
2023-01-13T10:54:21.067Z,99260.11
2023-01-13T10:55:19.077Z,99263.21
2023-01-13T10:56:16.083Z,99259.76
2023-01-13T10:57:19.067Z,99260.54
2023-01-13T10:58:16.094Z,99272.75
2023-01-13T10:59:19.075Z,99266.83
2023-01-13T11:00:19.088Z,99269.43
2023-01-13T11:01:19.354Z,99262.86
2023-01-13T11:02:25.604Z,99270.59
2023-01-13T11:03:20.387Z,99275.47
2023-01-13T11:04:21.082Z,99249.79
2023-01-13T11:05:21.076Z,99268.23
2023-01-13T11:06:15.068Z,99279.49
2023-01-13T11:07:19.069Z,99280.36
2023-01-13T11:08:18.239Z,99282.41
2023-01-13T11:09:19.082Z,99283.06
2023-01-13T11:10:17.204Z,99280.43
2023-01-13T11:11:19.068Z,99284.98
2023-01-13T11:12:19.065Z,99280.96
2023-01-13T11:13:18.071Z,99294.62
2023-01-13T11:14:23.082Z,99288.88
2023-01-13T11:15:14.067Z,99289.47
2023-01-13T11:16:15.088Z,99279.18
2023-01-13T11:17:21.091Z,99297.07
2023-01-13T11:18:19.088Z,99301.00
2023-01-13T11:19:18.071Z,99301.88
2023-01-13T11:20:20.076Z,99299.39
2023-01-13T11:21:19.072Z,99288.47
2023-01-13T11:22:19.074Z,99293.68
2023-01-13T11:23:21.071Z,99304.71
2023-01-13T11:24:23.079Z,99299.37
2023-01-13T11:25:19.077Z,99299.33
2023-01-13T11:26:16.071Z,99293.32
2023-01-13T11:27:18.068Z,99293.55
2023-01-13T11:28:21.081Z,99288.82
2023-01-13T11:29:17.080Z,99308.95
2023-01-13T11:30:21.097Z,99306.38
2023-01-13T11:31:18.137Z,99311.74
2023-01-13T11:32:19.093Z,99305.82
2023-01-13T11:33:21.088Z,99305.62
2023-01-13T11:34:19.090Z,99316.07
2023-01-13T11:35:17.080Z,99305.31
2023-01-13T11:36:20.212Z,99323.17
2023-01-13T11:37:19.097Z,99316.59
2023-01-13T11:38:19.123Z,99317.77
2023-01-13T11:39:19.106Z,99321.15
2023-01-13T11:40:20.069Z,99324.99
2023-01-13T11:41:21.096Z,99322.50
2023-01-13T11:42:23.073Z,99315.12
2023-01-13T11:43:21.085Z,99324.22
2023-01-13T11:44:19.131Z,99320.50